Time;durP1;ratioP1;P1;durP2;ratioP2;P2;SDS_P1;SDS_P2;PMS_P1;PMS_P2;Temp;Humidity;BMP_temperature;BMP_pressure;BME280_temperature;BME280_humidity;BME280_pressure;Samples;Min_cycle;Max_cycle;Signal;HPM_P1;HPM_P2
2021/10/04 00:00:56;;;;;;;8.85;3.60;;;;;;;;;;4915685;28;20030;-61
2021/10/04 00:03:24;;;;;;;12.07;4.13;;;;;;;;;;4932121;28;20123;-61
2021/10/04 00:05:52;;;;;;;7.32;3.42;;;;;;;;;;4931417;28;20031;-60
2021/10/04 00:08:17;;;;;;;9.65;3.42;;;;;;;;;;4933135;28;20041;-60
2021/10/04 00:10:43;;;;;;;11.18;3.55;;;;;;;;;;4918141;28;20022;-60
2021/10/04 00:13:10;;;;;;;6.35;3.53;;;;;;;;;;4933176;28;20046;-61
2021/10/04 00:15:41;;;;;;;11.20;3.65;;;;;;;;;;4948615;28;20054;-61
2021/10/04 00:18:07;;;;;;;13.70;3.90;;;;;;;;;;4947283;28;20053;-60
2021/10/04 00:20:32;;;;;;;5.97;3.30;;;;;;;;;;4948815;28;20288;-61
2021/10/04 00:22:59;;;;;;;9.60;3.42;;;;;;;;;;4966062;28;20157;-59
2021/10/04 00:25:25;;;;;;;21.55;4.43;;;;;;;;;;4952515;28;20057;-59
2021/10/04 00:27:53;;;;;;;8.25;3.50;;;;;;;;;;4951596;28;22280;-59
2021/10/04 00:30:20;;;;;;;8.23;3.53;;;;;;;;;;4936400;28;20034;-59
2021/10/04 00:32:47;;;;;;;7.63;3.25;;;;;;;;;;4953091;28;20038;-60
2021/10/04 00:35:14;;;;;;;9.82;3.25;;;;;;;;;;4933306;28;20663;-61
2021/10/04 00:37:39;;;;;;;8.23;3.17;;;;;;;;;;4969359;28;20038;-61
2021/10/04 00:40:06;;;;;;;7.38;3.15;;;;;;;;;;4934242;28;20788;-59
2021/10/04 00:42:35;;;;;;;5.97;3.28;;;;;;;;;;4936128;28;20022;-60
2021/10/04 00:45:00;;;;;;;7.78;3.20;;;;;;;;;;4937394;28;20045;-60
2021/10/04 00:47:26;;;;;;;11.23;3.53;;;;;;;;;;4953256;28;20065;-60
2021/10/04 00:49:56;;;;;;;10.50;3.35;;;;;;;;;;4952452;28;20486;-60
2021/10/04 00:52:22;;;;;;;10.65;2.90;;;;;;;;;;4952384;28;20035;-61
2021/10/04 00:54:47;;;;;;;16.90;2.97;;;;;;;;;;4950629;28;20038;-60
2021/10/04 00:57:15;;;;;;;6.10;2.80;;;;;;;;;;4934403;28;20041;-60
2021/10/04 00:59:41;;;;;;;5.45;3.00;;;;;;;;;;4953205;28;20022;-60
2021/10/04 01:02:06;;;;;;;8.05;3.25;;;;;;;;;;4921356;28;20421;-60
2021/10/04 01:04:32;;;;;;;4.93;2.60;;;;;;;;;;4932143;28;20033;-60
2021/10/04 01:06:58;;;;;;;16.67;2.95;;;;;;;;;;4949199;28;20378;-60
2021/10/04 01:09:29;;;;;;;11.00;3.30;;;;;;;;;;4970530;28;20030;-60
2021/10/04 01:11:58;;;;;;;12.45;3.08;;;;;;;;;;4967580;28;20097;-59
2021/10/04 01:14:24;;;;;;;7.82;2.60;;;;;;;;;;4932571;28;20037;-59
2021/10/04 01:16:51;;;;;;;7.63;2.80;;;;;;;;;;4968803;28;20034;-62
2021/10/04 01:19:16;;;;;;;11.68;2.63;;;;;;;;;;4950744;28;20026;-60
2021/10/04 01:21:41;;;;;;;10.90;3.10;;;;;;;;;;4919225;28;22047;-60
2021/10/04 01:24:10;;;;;;;11.00;3.08;;;;;;;;;;4934657;28;20057;-59
2021/10/04 01:26:37;;;;;;;7.32;2.88;;;;;;;;;;4967893;28;20066;-61
2021/10/04 01:29:03;;;;;;;11.43;2.78;;;;;;;;;;4948180;28;20037;-60
2021/10/04 01:31:30;;;;;;;7.35;2.65;;;;;;;;;;4948653;28;20306;-60
2021/10/04 01:33:56;;;;;;;5.25;2.85;;;;;;;;;;4947790;28;20137;-60
2021/10/04 01:36:24;;;;;;;10.15;2.83;;;;;;;;;;4947773;28;20499;-60
2021/10/04 01:38:50;;;;;;;9.43;2.72;;;;;;;;;;4963255;28;20793;-60
2021/10/04 01:41:18;;;;;;;9.30;2.83;;;;;;;;;;4947325;28;20117;-60
2021/10/04 01:43:47;;;;;;;7.90;3.10;;;;;;;;;;4947180;28;20046;-60
2021/10/04 01:46:18;;;;;;;9.00;3.25;;;;;;;;;;4925824;28;20031;-59
2021/10/04 01:48:46;;;;;;;13.65;2.55;;;;;;;;;;4959475;28;20046;-60
2021/10/04 01:51:11;;;;;;;10.20;2.40;;;;;;;;;;4930345;28;20034;-60
2021/10/04 01:53:37;;;;;;;7.28;3.08;;;;;;;;;;4946931;28;20042;-60
2021/10/04 01:56:05;;;;;;;9.60;2.53;;;;;;;;;;4947528;28;20110;-61
2021/10/04 01:58:31;;;;;;;8.27;2.35;;;;;;;;;;4931080;28;20027;-61
2021/10/04 02:00:58;;;;;;;7.15;3.08;;;;;;;;;;4945358;28;20046;-61
2021/10/04 02:03:25;;;;;;;10.57;2.50;;;;;;;;;;4923219;28;20420;-60
2021/10/04 02:05:51;;;;;;;9.10;3.00;;;;;;;;;;4931198;28;20041;-60
2021/10/04 02:08:19;;;;;;;9.32;2.53;;;;;;;;;;4926092;28;20941;-60
2021/10/04 02:10:50;;;;;;;6.90;1.85;;;;;;;;;;4911032;28;20096;-59
2021/10/04 02:13:16;;;;;;;7.45;2.63;;;;;;;;;;4944997;28;20144;-60
2021/10/04 02:15:42;;;;;;;6.15;2.67;;;;;;;;;;4944372;28;20497;-60
2021/10/04 02:18:08;;;;;;;9.23;3.08;;;;;;;;;;4946638;28;20031;-60
2021/10/04 02:20:37;;;;;;;7.32;2.30;;;;;;;;;;4928220;28;20051;-61
2021/10/04 02:23:07;;;;;;;4.68;2.58;;;;;;;;;;4947269;28;20065;-60
2021/10/04 02:25:37;;;;;;;8.40;2.30;;;;;;;;;;4962747;28;22100;-60
2021/10/04 02:28:03;;;;;;;11.98;2.28;;;;;;;;;;4944327;28;20025;-60
2021/10/04 02:30:34;;;;;;;10.43;2.00;;;;;;;;;;4940153;28;20035;-60
2021/10/04 02:33:05;;;;;;;7.15;2.70;;;;;;;;;;4931004;28;20065;-60
2021/10/04 02:35:32;;;;;;;11.18;3.08;;;;;;;;;;4933413;28;20374;-60
2021/10/04 02:37:58;;;;;;;12.13;2.60;;;;;;;;;;4915484;28;20030;-60
2021/10/04 02:40:27;;;;;;;9.50;2.75;;;;;;;;;;4966229;28;20030;-60
2021/10/04 02:42:53;;;;;;;8.35;2.42;;;;;;;;;;4929825;28;20121;-60
2021/10/04 02:45:21;;;;;;;6.72;2.60;;;;;;;;;;4938863;28;20034;-60
2021/10/04 02:47:49;;;;;;;3.13;2.30;;;;;;;;;;4944510;28;20085;-59
2021/10/04 02:50:22;;;;;;;16.38;2.75;;;;;;;;;;4947115;28;20046;-59
2021/10/04 02:52:50;;;;;;;7.82;2.72;;;;;;;;;;4965802;28;20585;-60
2021/10/04 02:55:16;;;;;;;6.18;2.83;;;;;;;;;;4940705;28;20042;-61
2021/10/04 02:57:44;;;;;;;13.35;2.90;;;;;;;;;;4962555;28;20030;-60
2021/10/04 03:00:14;;;;;;;8.38;3.25;;;;;;;;;;4959449;28;20082;-59
2021/10/04 03:02:42;;;;;;;9.82;2.80;;;;;;;;;;4960666;28;20026;-60
2021/10/04 03:05:13;;;;;;;7.72;2.80;;;;;;;;;;4961242;28;20034;-60
2021/10/04 03:07:38;;;;;;;12.23;3.05;;;;;;;;;;4941458;28;20053;-60
2021/10/04 03:10:04;;;;;;;6.80;2.45;;;;;;;;;;4939635;28;20038;-60
2021/10/04 03:12:29;;;;;;;11.38;2.50;;;;;;;;;;4943757;28;20124;-60
2021/10/04 03:14:59;;;;;;;9.25;2.67;;;;;;;;;;4963161;28;20031;-60
2021/10/04 03:17:24;;;;;;;6.65;2.70;;;;;;;;;;4927610;28;20053;-60
2021/10/04 03:19:53;;;;;;;7.75;2.00;;;;;;;;;;4962494;28;20026;-60
2021/10/04 03:22:18;;;;;;;9.10;2.97;;;;;;;;;;4949253;28;20030;-60
2021/10/04 03:24:46;;;;;;;11.10;2.03;;;;;;;;;;4945828;28;21339;-60
2021/10/04 03:27:14;;;;;;;13.55;2.22;;;;;;;;;;4927223;28;20038;-61
2021/10/04 03:29:39;;;;;;;8.23;2.42;;;;;;;;;;4913014;28;20046;-61
2021/10/04 03:32:07;;;;;;;9.15;2.03;;;;;;;;;;4928528;28;20786;-60
2021/10/04 03:34:34;;;;;;;7.03;2.65;;;;;;;;;;4911657;28;20050;-61
2021/10/04 03:37:05;;;;;;;4.38;1.85;;;;;;;;;;4951093;28;20065;-61
2021/10/04 03:39:32;;;;;;;3.08;2.28;;;;;;;;;;4931201;28;20229;-61
2021/10/04 03:42:05;;;;;;;10.57;2.67;;;;;;;;;;4963772;28;20030;-60
2021/10/04 03:44:31;;;;;;;9.77;2.60;;;;;;;;;;4933211;28;20069;-61
2021/10/04 03:46:57;;;;;;;12.10;2.25;;;;;;;;;;4931787;28;20027;-61
2021/10/04 03:49:22;;;;;;;7.30;1.98;;;;;;;;;;4930758;28;20077;-61
2021/10/04 03:51:48;;;;;;;11.63;2.42;;;;;;;;;;4932072;28;20817;-60
2021/10/04 03:54:13;;;;;;;6.97;2.10;;;;;;;;;;4963029;28;20122;-61
2021/10/04 03:56:41;;;;;;;7.45;2.00;;;;;;;;;;4933840;28;20116;-60
2021/10/04 03:59:07;;;;;;;9.40;1.60;;;;;;;;;;4933665;28;20034;-59
2021/10/04 04:01:32;;;;;;;4.35;1.73;;;;;;;;;;4937154;28;20053;-59
2021/10/04 04:04:01;;;;;;;7.05;2.70;;;;;;;;;;4948896;28;20062;-59
2021/10/04 04:06:26;;;;;;;7.22;2.33;;;;;;;;;;4936310;28;20116;-60
2021/10/04 04:08:54;;;;;;;5.15;2.22;;;;;;;;;;4949057;28;20046;-60
2021/10/04 04:11:23;;;;;;;7.72;2.17;;;;;;;;;;4941800;28;20153;-59
2021/10/04 04:13:49;;;;;;;4.28;2.33;;;;;;;;;;4967532;28;20037;-60
2021/10/04 04:16:14;;;;;;;8.85;2.47;;;;;;;;;;4952996;28;20046;-59
2021/10/04 04:18:45;;;;;;;5.57;1.80;;;;;;;;;;4936861;28;21816;-59
2021/10/04 04:21:10;;;;;;;9.07;2.15;;;;;;;;;;4922056;28;20034;-59
2021/10/04 04:23:36;;;;;;;7.25;2.08;;;;;;;;;;4952868;28;20465;-59
2021/10/04 04:26:05;;;;;;;11.20;2.30;;;;;;;;;;4970006;28;20026;-61
2021/10/04 04:28:38;;;;;;;9.32;2.22;;;;;;;;;;4937151;28;20026;-59
2021/10/04 04:31:04;;;;;;;9.38;2.53;;;;;;;;;;4937982;28;20048;-61
2021/10/04 04:33:30;;;;;;;7.55;2.63;;;;;;;;;;4935871;28;20058;-60
2021/10/04 04:35:58;;;;;;;4.72;2.05;;;;;;;;;;4933787;28;20565;-60
2021/10/04 04:38:23;;;;;;;8.32;2.45;;;;;;;;;;4915781;28;20034;-61
2021/10/04 04:40:51;;;;;;;5.47;2.17;;;;;;;;;;4917102;28;20124;-60
2021/10/04 04:43:19;;;;;;;14.55;2.50;;;;;;;;;;4929935;28;20050;-60
2021/10/04 04:45:49;;;;;;;8.93;2.10;;;;;;;;;;4915465;28;20129;-60
2021/10/04 04:48:15;;;;;;;7.32;1.90;;;;;;;;;;4931903;28;20038;-59
2021/10/04 04:50:43;;;;;;;6.25;1.90;;;;;;;;;;4917617;28;20426;-60
2021/10/04 04:53:11;;;;;;;6.35;2.63;;;;;;;;;;4914802;28;20434;-61
2021/10/04 04:55:36;;;;;;;5.82;2.20;;;;;;;;;;4933817;28;20926;-60
2021/10/04 04:58:02;;;;;;;4.93;2.40;;;;;;;;;;4915706;28;20059;-60
2021/10/04 05:00:28;;;;;;;6.50;2.08;;;;;;;;;;4931810;28;20031;-61
2021/10/04 05:02:53;;;;;;;6.72;1.95;;;;;;;;;;4915204;28;20042;-60
2021/10/04 05:05:20;;;;;;;5.45;2.35;;;;;;;;;;4916056;28;20573;-60
2021/10/04 05:07:45;;;;;;;6.07;1.98;;;;;;;;;;4937066;28;20043;-60
2021/10/04 05:10:14;;;;;;;3.88;1.92;;;;;;;;;;4931646;28;20036;-60
2021/10/04 05:12:41;;;;;;;4.78;1.60;;;;;;;;;;4947323;28;20156;-60
2021/10/04 05:15:06;;;;;;;6.55;2.08;;;;;;;;;;4931969;28;20034;-60
2021/10/04 05:17:31;;;;;;;9.75;2.30;;;;;;;;;;4929779;28;20059;-60
2021/10/04 05:19:57;;;;;;;7.28;1.80;;;;;;;;;;4917259;28;20027;-60
2021/10/04 05:22:25;;;;;;;14.88;2.25;;;;;;;;;;4929551;28;20037;-60
2021/10/04 05:24:53;;;;;;;7.00;2.22;;;;;;;;;;4929319;28;20015;-59
2021/10/04 05:27:19;;;;;;;5.32;1.73;;;;;;;;;;4928413;28;20046;-60
2021/10/04 05:29:49;;;;;;;6.82;1.85;;;;;;;;;;4929658;28;20046;-59
2021/10/04 05:32:17;;;;;;;9.70;1.90;;;;;;;;;;4936143;28;20050;-60
2021/10/04 05:34:43;;;;;;;5.82;1.90;;;;;;;;;;4937074;28;20148;-60
2021/10/04 05:37:14;;;;;;;7.53;2.22;;;;;;;;;;4922677;28;20041;-60
2021/10/04 05:39:42;;;;;;;5.57;1.92;;;;;;;;;;4934460;28;20034;-59
2021/10/04 05:42:08;;;;;;;9.50;1.88;;;;;;;;;;4968514;28;21279;-60
2021/10/04 05:44:33;;;;;;;4.28;1.67;;;;;;;;;;4935938;28;20030;-60
2021/10/04 05:46:59;;;;;;;9.80;2.22;;;;;;;;;;4936581;28;22398;-60
2021/10/04 05:49:25;;;;;;;9.00;2.50;;;;;;;;;;4936991;28;20948;-59
2021/10/04 05:51:53;;;;;;;6.97;2.03;;;;;;;;;;4952453;28;20038;-60
2021/10/04 05:54:25;;;;;;;5.88;2.25;;;;;;;;;;4936811;28;20100;-59
2021/10/04 05:56:50;;;;;;;5.05;1.85;;;;;;;;;;4935189;28;20047;-60
2021/10/04 05:59:21;;;;;;;7.25;2.20;;;;;;;;;;4919487;28;20455;-59
2021/10/04 06:01:49;;;;;;;5.25;1.90;;;;;;;;;;4949056;28;20030;-60
2021/10/04 06:04:14;;;;;;;5.32;1.60;;;;;;;;;;4951520;28;20030;-60
2021/10/04 06:06:42;;;;;;;7.10;1.88;;;;;;;;;;4952400;28;20037;-60
2021/10/04 06:09:10;;;;;;;8.45;1.42;;;;;;;;;;4936387;28;20034;-60
2021/10/04 06:11:35;;;;;;;11.02;2.05;;;;;;;;;;4916920;28;20051;-60
2021/10/04 06:14:05;;;;;;;2.88;1.90;;;;;;;;;;4950456;28;20622;-61
2021/10/04 06:16:30;;;;;;;4.38;1.88;;;;;;;;;;4932838;28;20121;-60
2021/10/04 06:18:58;;;;;;;5.28;1.73;;;;;;;;;;4936376;28;20033;-60
2021/10/04 06:21:26;;;;;;;11.52;1.77;;;;;;;;;;4948417;28;20099;-61
2021/10/04 06:23:51;;;;;;;5.72;1.08;;;;;;;;;;4931024;28;20042;-61
2021/10/04 06:26:19;;;;;;;6.32;1.85;;;;;;;;;;4948939;28;20053;-60
2021/10/04 06:28:44;;;;;;;5.32;1.15;;;;;;;;;;4959686;28;21935;-62
2021/10/04 06:31:12;;;;;;;3.47;1.50;;;;;;;;;;4950343;28;20513;-59
2021/10/04 06:33:42;;;;;;;3.38;1.73;;;;;;;;;;4933730;28;20062;-61
2021/10/04 06:36:08;;;;;;;6.47;1.58;;;;;;;;;;4966751;28;20026;-60
2021/10/04 06:38:37;;;;;;;14.65;2.15;;;;;;;;;;4944123;28;20056;-61
2021/10/04 06:41:05;;;;;;;5.45;1.58;;;;;;;;;;4941492;28;20062;-61
2021/10/04 06:43:30;;;;;;;2.38;1.23;;;;;;;;;;4930069;28;20026;-60
2021/10/04 06:45:56;;;;;;;4.32;1.73;;;;;;;;;;4946475;28;20046;-61
2021/10/04 06:48:21;;;;;;;2.78;1.70;;;;;;;;;;4931051;28;20680;-60
2021/10/04 06:51:09;;;;;;;14.63;1.42;;;;;;;;;;4931837;28;20053;-60
2021/10/04 06:53:35;;;;;;;8.07;1.83;;;;;;;;;;4964823;28;20038;-60
2021/10/04 06:56:06;;;;;;;3.70;1.58;;;;;;;;;;4933262;28;20035;-60
2021/10/04 06:58:31;;;;;;;2.78;1.60;;;;;;;;;;4931540;28;20038;-60
2021/10/04 07:00:56;;;;;;;2.63;1.48;;;;;;;;;;4932217;28;20034;-60
2021/10/04 07:03:22;;;;;;;5.40;1.95;;;;;;;;;;4931748;28;20030;-61
2021/10/04 07:05:48;;;;;;;6.20;1.38;;;;;;;;;;4963684;28;20042;-60
2021/10/04 07:08:15;;;;;;;7.85;1.58;;;;;;;;;;4947800;28;20042;-60
2021/10/04 07:10:41;;;;;;;2.78;1.13;;;;;;;;;;4928478;28;20429;-61
2021/10/04 07:13:11;;;;;;;5.00;1.70;;;;;;;;;;4945371;28;20525;-60
2021/10/04 07:15:37;;;;;;;9.63;1.77;;;;;;;;;;4932342;28;20039;-60
2021/10/04 07:18:04;;;;;;;4.00;1.48;;;;;;;;;;4933391;28;20034;-61
2021/10/04 07:20:32;;;;;;;5.47;1.95;;;;;;;;;;4954620;28;20922;-61
2021/10/04 07:23:00;;;;;;;6.25;1.88;;;;;;;;;;4914095;28;20125;-61
2021/10/04 07:25:33;;;;;;;4.38;1.77;;;;;;;;;;4948381;28;20168;-62
2021/10/04 07:28:01;;;;;;;8.55;1.70;;;;;;;;;;4964537;28;20146;-60
2021/10/04 07:30:27;;;;;;;9.77;1.58;;;;;;;;;;4948243;28;20057;-60
2021/10/04 07:32:55;;;;;;;4.22;1.10;;;;;;;;;;4944484;28;20045;-60
2021/10/04 07:35:26;;;;;;;5.53;1.70;;;;;;;;;;4950437;28;20061;-61
2021/10/04 07:37:57;;;;;;;3.38;1.45;;;;;;;;;;4950609;28;20855;-60
2021/10/04 07:40:25;;;;;;;3.65;1.05;;;;;;;;;;4932149;28;20166;-61
2021/10/04 07:42:50;;;;;;;7.00;1.38;;;;;;;;;;4931845;28;20632;-60
2021/10/04 07:45:16;;;;;;;8.85;1.40;;;;;;;;;;4958316;28;20054;-60
2021/10/04 07:47:42;;;;;;;3.45;1.10;;;;;;;;;;4950480;28;20089;-60
2021/10/04 07:50:11;;;;;;;3.67;1.45;;;;;;;;;;4944101;28;20031;-62
2021/10/04 07:52:39;;;;;;;6.13;1.60;;;;;;;;;;4963637;28;20037;-62
2021/10/04 07:55:05;;;;;;;3.92;1.30;;;;;;;;;;4933524;28;20030;-60
2021/10/04 07:57:33;;;;;;;3.90;1.20;;;;;;;;;;4933332;28;20114;-60
2021/10/04 08:00:00;;;;;;;4.55;1.33;;;;;;;;;;4935280;28;20503;-61
2021/10/04 08:02:26;;;;;;;4.60;1.27;;;;;;;;;;4948954;28;20031;-60
2021/10/04 08:04:57;;;;;;;3.78;1.30;;;;;;;;;;4947670;28;20581;-61
2021/10/04 08:07:24;;;;;;;7.40;1.70;;;;;;;;;;4946738;28;20086;-61
2021/10/04 08:09:50;;;;;;;7.43;1.13;;;;;;;;;;4945653;28;20051;-61
2021/10/04 08:12:17;;;;;;;9.82;2.13;;;;;;;;;;4946699;28;20114;-61
2021/10/04 08:14:46;;;;;;;8.93;1.38;;;;;;;;;;4945557;28;20038;-61
2021/10/04 08:17:11;;;;;;;6.45;1.42;;;;;;;;;;4942152;28;21023;-61
2021/10/04 08:19:36;;;;;;;6.95;1.58;;;;;;;;;;4943030;28;20050;-61
2021/10/04 08:22:02;;;;;;;2.30;1.27;;;;;;;;;;4929468;28;20085;-61
2021/10/04 08:24:27;;;;;;;5.75;1.40;;;;;;;;;;4945422;28;20163;-61
2021/10/04 08:26:53;;;;;;;6.82;1.23;;;;;;;;;;4915413;28;20926;-61
2021/10/04 08:29:18;;;;;;;7.03;1.30;;;;;;;;;;4929724;28;20043;-61
2021/10/04 08:31:45;;;;;;;8.05;1.27;;;;;;;;;;4932696;28;20050;-61
2021/10/04 08:34:10;;;;;;;8.98;1.50;;;;;;;;;;4934426;28;20762;-61
2021/10/04 08:36:38;;;;;;;8.73;1.40;;;;;;;;;;4948476;28;20030;-61
2021/10/04 08:39:07;;;;;;;5.97;1.20;;;;;;;;;;4945532;28;20030;-60
2021/10/04 08:41:37;;;;;;;5.90;1.17;;;;;;;;;;4933120;28;20033;-61
2021/10/04 08:44:04;;;;;;;5.18;1.10;;;;;;;;;;4927321;28;20034;-61
2021/10/04 08:46:36;;;;;;;5.43;1.38;;;;;;;;;;4967488;28;20113;-61
2021/10/04 08:49:04;;;;;;;2.30;1.05;;;;;;;;;;4918298;28;20051;-60
2021/10/04 08:51:32;;;;;;;2.53;1.17;;;;;;;;;;4963364;28;20374;-61
2021/10/04 08:54:00;;;;;;;4.45;1.00;;;;;;;;;;4931834;28;22010;-61
2021/10/04 08:56:25;;;;;;;4.47;1.10;;;;;;;;;;4920810;28;20030;-61
2021/10/04 08:58:50;;;;;;;3.63;0.90;;;;;;;;;;4939203;28;20512;-61
2021/10/04 09:01:22;;;;;;;5.70;0.80;;;;;;;;;;4952022;28;21993;-61
2021/10/04 09:03:49;;;;;;;4.65;1.10;;;;;;;;;;4943741;28;20612;-60
2021/10/04 09:06:25;;;;;;;2.92;1.17;;;;;;;;;;4970696;28;20022;-61
2021/10/04 09:08:54;;;;;;;2.85;0.98;;;;;;;;;;4934733;28;20574;-62
2021/10/04 09:11:28;;;;;;;6.05;0.77;;;;;;;;;;4952248;28;20599;-62
2021/10/04 09:14:01;;;;;;;2.63;0.88;;;;;;;;;;4945444;28;20807;-62
2021/10/04 09:16:29;;;;;;;1.70;0.70;;;;;;;;;;4966115;28;20039;-61
2021/10/04 09:19:17;;;;;;;7.03;0.88;;;;;;;;;;4935274;28;20097;-61
2021/10/04 09:22:06;;;;;;;5.03;1.17;;;;;;;;;;4952708;28;20042;-62
2021/10/04 09:24:32;;;;;;;4.38;1.13;;;;;;;;;;4947365;28;20058;-62
2021/10/04 09:27:02;;;;;;;1.27;0.68;;;;;;;;;;4950132;28;20026;-62
2021/10/04 09:29:46;;;;;;;1.33;0.70;;;;;;;;;;4920637;28;20030;-62
2021/10/04 09:32:23;;;;;;;5.18;1.15;;;;;;;;;;4951714;28;20030;-62
2021/10/04 09:34:50;;;;;;;1.95;1.00;;;;;;;;;;4947237;28;20727;-61
2021/10/04 09:37:25;;;;;;;2.30;0.77;;;;;;;;;;4951977;28;20133;-63
2021/10/04 09:39:53;;;;;;;7.50;0.93;;;;;;;;;;4945365;28;20030;-61
2021/10/04 09:42:19;;;;;;;5.85;1.20;;;;;;;;;;4931674;28;22259;-60
2021/10/04 09:45:00;;;;;;;4.95;0.82;;;;;;;;;;4948565;28;20067;-63
2021/10/04 09:47:28;;;;;;;2.92;0.80;;;;;;;;;;4944238;28;20750;-61
2021/10/04 09:49:54;;;;;;;6.50;1.17;;;;;;;;;;4949213;28;20058;-60
2021/10/04 09:52:33;;;;;;;1.55;0.75;;;;;;;;;;4948090;28;20041;-61
2021/10/04 09:54:59;;;;;;;3.75;0.63;;;;;;;;;;4948693;28;20149;-60
2021/10/04 09:57:27;;;;;;;1.50;0.50;;;;;;;;;;4948730;28;20437;-60
2021/10/04 09:59:54;;;;;;;4.40;0.80;;;;;;;;;;4961966;28;20035;-61
2021/10/04 10:02:20;;;;;;;1.73;0.50;;;;;;;;;;4965555;28;21967;-61
2021/10/04 10:04:47;;;;;;;4.60;0.88;;;;;;;;;;4947755;28;20063;-60
2021/10/04 10:07:13;;;;;;;4.72;0.63;;;;;;;;;;4945852;28;20038;-61
2021/10/04 10:09:39;;;;;;;6.80;0.90;;;;;;;;;;4964568;28;20050;-63
2021/10/04 10:12:07;;;;;;;4.43;0.57;;;;;;;;;;4929893;28;20041;-61
2021/10/04 10:18:21;;;;;;;2.83;0.70;;;;;;;;;;4949360;28;20241;-60
2021/10/04 10:20:58;;;;;;;3.55;0.63;;;;;;;;;;4963682;28;20043;-61
2021/10/04 10:23:43;;;;;;;5.03;1.10;;;;;;;;;;4948856;28;20045;-61
2021/10/04 10:26:26;;;;;;;7.50;0.90;;;;;;;;;;4929841;28;20898;-61
2021/10/04 10:29:09;;;;;;;3.58;0.80;;;;;;;;;;4932632;28;20073;-63
2021/10/04 10:31:50;;;;;;;4.60;1.00;;;;;;;;;;4932592;28;20093;-62
2021/10/04 10:34:30;;;;;;;2.45;0.60;;;;;;;;;;4936735;28;20050;-61
2021/10/04 10:36:57;;;;;;;4.88;0.98;;;;;;;;;;4933642;28;20046;-62
2021/10/04 10:39:41;;;;;;;5.93;0.93;;;;;;;;;;4944288;28;20035;-62
2021/10/04 10:42:12;;;;;;;4.47;0.90;;;;;;;;;;4951725;28;21979;-62
2021/10/04 10:44:58;;;;;;;1.90;0.63;;;;;;;;;;4948353;28;20031;-62
2021/10/04 10:47:33;;;;;;;3.13;0.70;;;;;;;;;;4965431;28;20042;-61
2021/10/04 10:50:22;;;;;;;4.03;1.05;;;;;;;;;;4966132;28;20070;-61
2021/10/04 10:53:01;;;;;;;5.57;0.77;;;;;;;;;;4944117;28;20038;-61
2021/10/04 10:55:32;;;;;;;8.32;1.02;;;;;;;;;;4947115;28;20069;-61
2021/10/04 10:58:06;;;;;;;3.83;1.10;;;;;;;;;;4943633;28;20034;-62
2021/10/04 11:00:34;;;;;;;;;;;;;;;;;;4966276;28;20123;-62
2021/10/04 11:03:18;;;;;;;1.88;0.80;;;;;;;;;;4966058;28;20029;-63
2021/10/04 11:05:54;;;;;;;3.03;0.82;;;;;;;;;;4948831;28;20391;-63
2021/10/04 11:08:22;;;;;;;1.65;0.77;;;;;;;;;;4962114;28;20098;-63
2021/10/04 11:10:50;;;;;;;3.13;0.68;;;;;;;;;;4951817;28;20045;-61
2021/10/04 11:13:35;;;;;;;4.28;0.80;;;;;;;;;;4949194;28;20053;-62
2021/10/04 11:16:03;;;;;;;2.22;0.38;;;;;;;;;;4949687;28;20129;-60
2021/10/04 11:18:38;;;;;;;1.85;0.77;;;;;;;;;;4947880;28;20908;-59
2021/10/04 11:21:06;;;;;;;3.30;0.77;;;;;;;;;;4930879;28;20038;-60
2021/10/04 11:23:34;;;;;;;6.40;1.17;;;;;;;;;;4933735;28;20050;-60
2021/10/04 11:25:59;;;;;;;4.38;1.05;;;;;;;;;;4938641;28;20045;-60
2021/10/04 11:28:36;;;;;;;1.27;0.47;;;;;;;;;;4966794;28;20470;-61
2021/10/04 11:31:04;;;;;;;3.25;0.40;;;;;;;;;;4948546;28;20042;-59
2021/10/04 11:33:36;;;;;;;4.60;0.90;;;;;;;;;;4948499;28;20138;-60
2021/10/04 11:36:07;;;;;;;4.10;0.60;;;;;;;;;;4952806;28;20026;-62
2021/10/04 11:38:35;;;;;;;1.30;0.50;;;;;;;;;;4949277;28;21248;-61
2021/10/04 11:41:04;;;;;;;3.30;0.73;;;;;;;;;;4968364;28;20026;-60
2021/10/04 11:43:36;;;;;;;3.17;0.68;;;;;;;;;;4947435;28;20026;-60
2021/10/04 11:46:13;;;;;;;1.80;0.70;;;;;;;;;;4952004;28;20048;-59
2021/10/04 11:48:42;;;;;;;2.42;0.60;;;;;;;;;;4969633;28;20050;-61
2021/10/04 11:51:16;;;;;;;3.20;0.88;;;;;;;;;;4935688;28;20066;-61
2021/10/04 11:53:44;;;;;;;2.47;0.30;;;;;;;;;;4948787;28;20061;-60
2021/10/04 11:56:10;;;;;;;2.00;0.50;;;;;;;;;;4950733;28;20034;-61
2021/10/04 11:58:36;;;;;;;5.50;0.68;;;;;;;;;;4967142;28;20041;-61
2021/10/04 12:01:03;;;;;;;5.80;0.68;;;;;;;;;;4950044;28;20034;-60
2021/10/04 12:03:32;;;;;;;2.97;0.50;;;;;;;;;;4965247;28;20046;-60
2021/10/04 12:06:02;;;;;;;3.20;0.43;;;;;;;;;;4930468;28;20451;-59
2021/10/04 12:08:46;;;;;;;5.13;0.98;;;;;;;;;;4968091;28;20030;-59
2021/10/04 12:11:19;;;;;;;3.28;0.45;;;;;;;;;;4963523;28;20031;-60
2021/10/04 12:13:51;;;;;;;2.97;0.60;;;;;;;;;;4934928;28;20034;-60
2021/10/04 12:16:22;;;;;;;9.93;0.93;;;;;;;;;;4953344;28;20033;-61
2021/10/04 12:18:58;;;;;;;4.55;0.98;;;;;;;;;;4964910;28;20034;-59
2021/10/04 12:21:27;;;;;;;3.20;0.80;;;;;;;;;;4953504;28;20049;-60
2021/10/04 12:24:13;;;;;;;1.35;0.43;;;;;;;;;;4952849;28;20062;-59
2021/10/04 12:26:48;;;;;;;2.45;0.63;;;;;;;;;;4953320;28;20037;-59
2021/10/04 12:29:28;;;;;;;1.90;0.40;;;;;;;;;;4965452;28;20034;-60
2021/10/04 12:31:55;;;;;;;2.47;0.60;;;;;;;;;;4954371;28;20125;-60
2021/10/04 12:34:24;;;;;;;5.85;0.73;;;;;;;;;;4964749;28;20053;-60
2021/10/04 12:36:51;;;;;;;2.83;0.55;;;;;;;;;;4949107;28;20042;-61
2021/10/04 12:39:19;;;;;;;4.13;0.40;;;;;;;;;;4932292;28;20039;-59
2021/10/04 12:41:54;;;;;;;1.98;0.88;;;;;;;;;;4933711;28;20035;-61
2021/10/04 12:44:35;;;;;;;1.63;0.63;;;;;;;;;;4951403;28;20102;-60
2021/10/04 12:47:07;;;;;;;2.95;0.55;;;;;;;;;;4932686;28;20379;-61
2021/10/04 12:49:35;;;;;;;2.10;0.77;;;;;;;;;;4966316;28;20134;-60
2021/10/04 12:52:04;;;;;;;3.97;0.63;;;;;;;;;;4950541;28;20127;-60
2021/10/04 12:54:34;;;;;;;3.25;0.68;;;;;;;;;;4966364;28;20031;-59
2021/10/04 12:57:02;;;;;;;6.97;0.90;;;;;;;;;;4950588;28;20027;-61
2021/10/04 12:59:34;;;;;;;4.82;0.70;;;;;;;;;;4966478;28;20714;-60
2021/10/04 13:02:04;;;;;;;4.45;0.65;;;;;;;;;;4950676;28;20030;-59
2021/10/04 13:04:31;;;;;;;1.85;0.63;;;;;;;;;;4951192;28;20039;-60
2021/10/04 13:06:59;;;;;;;2.00;0.43;;;;;;;;;;4948713;28;20025;-58
2021/10/04 13:09:27;;;;;;;5.07;0.75;;;;;;;;;;4949709;28;20101;-60
2021/10/04 13:11:53;;;;;;;2.15;0.57;;;;;;;;;;4933823;28;20157;-60
2021/10/04 13:14:21;;;;;;;6.28;0.75;;;;;;;;;;4938446;28;20042;-59
2021/10/04 13:16:47;;;;;;;6.22;0.77;;;;;;;;;;4945430;28;20039;-59
2021/10/04 13:19:16;;;;;;;2.30;0.93;;;;;;;;;;4948518;28;20046;-60
2021/10/04 13:21:44;;;;;;;7.05;0.77;;;;;;;;;;4934683;28;20038;-60
2021/10/04 13:24:10;;;;;;;2.50;0.60;;;;;;;;;;4948353;28;20646;-60
2021/10/04 13:26:38;;;;;;;1.58;0.50;;;;;;;;;;4949817;28;20023;-59
2021/10/04 13:29:04;;;;;;;5.32;0.90;;;;;;;;;;4933665;28;20035;-61
2021/10/04 13:31:32;;;;;;;3.45;0.98;;;;;;;;;;4944536;28;20038;-59
2021/10/04 13:33:58;;;;;;;4.15;0.60;;;;;;;;;;4950623;28;20047;-60
2021/10/04 13:36:28;;;;;;;1.40;0.32;;;;;;;;;;4933652;28;20106;-62
2021/10/04 13:38:56;;;;;;;3.88;0.60;;;;;;;;;;4918376;28;21545;-61
2021/10/04 13:41:23;;;;;;;5.82;0.60;;;;;;;;;;4933827;28;20066;-60
2021/10/04 13:43:49;;;;;;;4.85;0.68;;;;;;;;;;4950112;28;20181;-61
2021/10/04 13:46:17;;;;;;;2.95;1.20;;;;;;;;;;4934358;28;20039;-63
2021/10/04 13:48:45;;;;;;;3.63;0.90;;;;;;;;;;4933712;28;20031;-62
2021/10/04 13:51:11;;;;;;;4.15;0.52;;;;;;;;;;4932270;28;20715;-62
2021/10/04 13:53:37;;;;;;;3.60;0.57;;;;;;;;;;4964991;28;20584;-62
2021/10/04 13:56:04;;;;;;;4.80;0.60;;;;;;;;;;4949475;28;22119;-61
2021/10/04 13:58:36;;;;;;;2.67;0.70;;;;;;;;;;4935173;28;20075;-61
2021/10/04 14:01:03;;;;;;;1.55;0.40;;;;;;;;;;4948718;28;20046;-60
2021/10/04 14:03:28;;;;;;;2.65;0.70;;;;;;;;;;4933144;28;20198;-60
2021/10/04 14:06:00;;;;;;;2.97;0.70;;;;;;;;;;4948256;28;20023;-64
2021/10/04 14:08:26;;;;;;;4.63;0.40;;;;;;;;;;4933106;28;20035;-62
2021/10/04 14:10:53;;;;;;;3.15;0.80;;;;;;;;;;4933542;28;20098;-61
2021/10/04 14:13:22;;;;;;;1.65;0.55;;;;;;;;;;4948493;28;20158;-62
2021/10/04 14:15:50;;;;;;;3.60;0.52;;;;;;;;;;4924785;28;20026;-60
2021/10/04 14:18:15;;;;;;;2.70;0.32;;;;;;;;;;4937043;28;20109;-62
2021/10/04 14:20:41;;;;;;;2.25;0.60;;;;;;;;;;4947673;28;20993;-61
2021/10/04 14:23:06;;;;;;;4.47;0.80;;;;;;;;;;4917573;28;20042;-61
2021/10/04 14:25:32;;;;;;;4.28;0.85;;;;;;;;;;4918006;28;20042;-61
2021/10/04 14:27:57;;;;;;;4.53;0.60;;;;;;;;;;4948341;28;20035;-60
2021/10/04 14:30:25;;;;;;;5.57;0.73;;;;;;;;;;4947582;28;20356;-62
2021/10/04 14:32:56;;;;;;;4.70;0.90;;;;;;;;;;4928422;28;20050;-59
2021/10/04 14:35:21;;;;;;;3.53;0.50;;;;;;;;;;4948265;28;20058;-59
2021/10/04 14:37:50;;;;;;;7.40;0.82;;;;;;;;;;4948824;28;20034;-62
2021/10/04 14:40:18;;;;;;;3.78;0.80;;;;;;;;;;4945712;28;20038;-63
2021/10/04 14:42:46;;;;;;;13.27;1.60;;;;;;;;;;4930616;28;20117;-61
2021/10/04 14:45:14;;;;;;;2.63;0.50;;;;;;;;;;4967965;28;20069;-58
2021/10/04 14:47:42;;;;;;;5.28;0.82;;;;;;;;;;4965851;28;20105;-61
2021/10/04 14:50:08;;;;;;;7.00;1.73;;;;;;;;;;4952049;28;20076;-59
2021/10/04 14:52:35;;;;;;;5.50;0.82;;;;;;;;;;4968947;28;20026;-62